Wine Knot — WDG6784 — position and weather

sailwx.info

Track history (hours):
 
Tides and Currents Weather Stations Pressure Air Temp Water Temp Dewpoint Dewpoint Depression Visibility Wind Speed Wind Dir Waves Ship Positions

Wine Knot

Owner: Kirley, Francis, Sykesville, MD. More information available from US FCC via Universal Licensing System and Coast Guard Vessel Documentation Center.

Last reported at 2018-Apr-29 22:15 UTC. Time now 2018-Jun-25 19:40 UTC.
Position N 26°38' W 077°05'.
Warning: this ship's position is 56 days out of date.

Length 12 m.

Type: Pleasure craft. MMSI: 367560620.

Date/timePositionNaut miles runAvg speedWind from/ knotsBaromVisibWave heightAir tempDewpointWater temp
2018-Apr-29 22:15N 26°38' W 077°05'1 3.0
2018-Apr-29 21:59N 26°38' W 077°04'1 1.7
2018-Apr-29 21:29N 26°38' W 077°03'0 0.0
2018-Apr-29 20:59N 26°38' W 077°03'0 0.0
2018-Apr-29 20:29N 26°38' W 077°03'0 0.0
2018-Apr-29 19:59N 26°38' W 077°03'0 0.0
2018-Apr-29 19:26N 26°38' W 077°03'0 0.0
2018-Apr-29 18:59N 26°38' W 077°03'0 0.0
2018-Apr-29 18:29N 26°38' W 077°03'0 0.0
2018-Apr-29 17:59N 26°38' W 077°03'1 2.0
2018-Apr-29 17:30N 26°37' W 077°03'4 8.3
2018-Apr-29 16:59N 26°34' W 076°60'3 0.1
2018-Apr-28 17:48N 26°33' W 077°03'0 0.0
2018-Apr-28 17:30N 26°33' W 077°03'0 0.0
2018-Apr-28 17:00N 26°33' W 077°03'0 0.0
2018-Apr-28 16:30N 26°33' W 077°03'0 0.0
2018-Apr-28 16:00N 26°33' W 077°03'0 0.0
2018-Apr-28 15:30N 26°33' W 077°03'0 0.0
2018-Apr-28 15:00N 26°33' W 077°03'0 0.0
2018-Apr-28 14:27N 26°33' W 077°03'0 0.0
2018-Apr-28 14:00N 26°33' W 077°03'0 0.0
2018-Apr-28 13:30N 26°33' W 077°03'1 1.9
2018-Apr-28 13:00N 26°33' W 077°02'4 0.2
2018-Apr-27 16:59N 26°36' W 077°01'1 0.0
2018-Apr-26 16:12N 26°35' W 077°01'313.3
2018-Apr-26 16:00N 26°32' W 077°02'2 0.1
2018-Apr-25 15:05N 26°32' W 076°59'2 0.3
2018-Apr-25 08:50N 26°31' W 076°59'0 0.0
2018-Apr-25 04:53N 26°31' W 076°59'0 0.0
2018-Apr-25 04:26N 26°31' W 076°59'0 0.0
2018-Apr-25 03:50N 26°31' W 076°59'0 0.0
2018-Apr-25 03:23N 26°31' W 076°59'0 0.0
2018-Apr-24 17:53N 26°31' W 076°58'5 0.1
2018-Apr-22 15:17N 26°35' W 077°02'2 8.6
2018-Apr-22 15:00N 26°33' W 077°01'2 0.4
2018-Apr-22 11:14N 26°33' W 077°03'0 0.0
2018-Apr-22 10:44N 26°33' W 077°03'0 0.0
2018-Apr-22 08:14N 26°33' W 077°03'0 0.0
2018-Apr-22 07:50N 26°33' W 077°03'0 0.0
2018-Apr-22 07:14N 26°33' W 077°03'0 0.0
2018-Apr-22 06:56N 26°33' W 077°03'0 0.0
2018-Apr-22 06:26N 26°33' W 077°03'0 0.0
2018-Apr-21 16:50N 26°33' W 077°03'0 0.0
2018-Apr-21 16:17N 26°33' W 077°03'0 0.0
2018-Apr-21 09:56N 26°33' W 077°03'0 0.0
2018-Apr-21 09:29N 26°33' W 077°03'0 0.0
2018-Apr-21 08:59N 26°33' W 077°03'0 0.0
2018-Apr-21 08:29N 26°33' W 077°03'0 0.0
2018-Apr-21 07:59N 26°33' W 077°03'0 0.0
2018-Apr-21 07:29N 26°33' W 077°03'0 0.0
2018-Apr-21 06:56N 26°33' W 077°03'0 0.0
2018-Apr-21 06:29N 26°33' W 077°03'0 0.0
2018-Apr-21 05:59N 26°33' W 077°03'0 0.0
2018-Apr-21 05:29N 26°33' W 077°03'0 0.0
2018-Apr-21 04:59N 26°33' W 077°03'0 0.0
2018-Apr-21 04:29N 26°33' W 077°03'0 0.0
2018-Apr-21 03:59N 26°33' W 077°03'0 0.0
2018-Apr-21 03:29N 26°33' W 077°03'0 0.0
2018-Apr-21 02:56N 26°33' W 077°03'0 0.0
2018-Apr-21 02:26N 26°33' W 077°03'0 0.0
2018-Apr-21 01:59N 26°33' W 077°03'0 0.0
2018-Apr-21 01:26N 26°33' W 077°03'0 0.0
2018-Apr-21 00:50N 26°33' W 077°03'0 0.0
2018-Apr-21 00:20N 26°33' W 077°03'0 0.0
2018-Apr-20 23:56N 26°33' W 077°03'0 0.0
2018-Apr-20 23:14N 26°33' W 077°03'0 0.0
2018-Apr-20 22:38N 26°33' W 077°03'0 0.0
2018-Apr-20 22:23N 26°33' W 077°03'0 0.0
2018-Apr-20 21:56N 26°33' W 077°03'0 0.0
2018-Apr-20 21:20N 26°33' W 077°03'0 0.0
2018-Apr-20 20:44N 26°33' W 077°03'2 6.7
2018-Apr-20 20:30N 26°33' W 077°01'2 0.3
2018-Apr-20 14:24N 26°35' W 077°01'3 0.4
2018-Apr-20 07:48N 26°33' W 077°03'0 0.0
2018-Apr-20 07:24N 26°33' W 077°03'0 0.0
2018-Apr-20 06:54N 26°33' W 077°03'0 0.0
2018-Apr-20 06:30N 26°33' W 077°03'0 0.0
2018-Apr-20 06:00N 26°33' W 077°03'0 0.0
2018-Apr-20 05:30N 26°33' W 077°03'0 0.0
2018-Apr-20 04:48N 26°33' W 077°03'0 0.0
2018-Apr-20 04:30N 26°33' W 077°03'0 0.0
2018-Apr-20 04:00N 26°33' W 077°03'0 0.0
2018-Apr-20 03:30N 26°33' W 077°03'0 0.0
2018-Apr-20 02:54N 26°33' W 077°03'0 0.0
2018-Apr-20 02:30N 26°33' W 077°03'0 0.0
2018-Apr-20 02:00N 26°33' W 077°03'0 0.0
2018-Apr-20 01:18N 26°33' W 077°03'0 0.0
2018-Apr-20 00:54N 26°33' W 077°03'0 0.0
2018-Apr-20 00:30N 26°33' W 077°03'  
Track history (hours):
 
Tides and Currents Weather Stations Pressure Air Temp Water Temp Dewpoint Dewpoint Depression Visibility Wind Speed Wind Dir Waves Ship Positions

Wine Knot

Owner: Kirley, Francis, Sykesville, MD. More information available from US FCC via Universal Licensing System and Coast Guard Vessel Documentation Center.

Last reported at 2018-Apr-29 22:15 UTC. Time now 2018-Jun-25 19:40 UTC.
Position N 26°38' W 077°05'.
Warning: this ship's position is 56 days out of date.

Length 12 m.

Type: Pleasure craft. MMSI: 367560620.

Date/timePositionNaut miles runAvg speedWind from/ knotsBaromVisibWave heightAir tempDewpointWater temp
2018-Apr-29 22:15N 26°38' W 077°05'1 3.0
2018-Apr-29 21:59N 26°38' W 077°04'1 1.7
2018-Apr-29 21:29N 26°38' W 077°03'0 0.0
2018-Apr-29 20:59N 26°38' W 077°03'0 0.0
2018-Apr-29 20:29N 26°38' W 077°03'0 0.0
2018-Apr-29 19:59N 26°38' W 077°03'0 0.0
2018-Apr-29 19:26N 26°38' W 077°03'0 0.0
2018-Apr-29 18:59N 26°38' W 077°03'0 0.0
2018-Apr-29 18:29N 26°38' W 077°03'0 0.0
2018-Apr-29 17:59N 26°38' W 077°03'1 2.0
2018-Apr-29 17:30N 26°37' W 077°03'4 8.3
2018-Apr-29 16:59N 26°34' W 076°60'3 0.1
2018-Apr-28 17:48N 26°33' W 077°03'0 0.0
2018-Apr-28 17:30N 26°33' W 077°03'0 0.0
2018-Apr-28 17:00N 26°33' W 077°03'0 0.0
2018-Apr-28 16:30N 26°33' W 077°03'0 0.0
2018-Apr-28 16:00N 26°33' W 077°03'0 0.0
2018-Apr-28 15:30N 26°33' W 077°03'0 0.0
2018-Apr-28 15:00N 26°33' W 077°03'0 0.0
2018-Apr-28 14:27N 26°33' W 077°03'0 0.0
2018-Apr-28 14:00N 26°33' W 077°03'0 0.0
2018-Apr-28 13:30N 26°33' W 077°03'1 1.9
2018-Apr-28 13:00N 26°33' W 077°02'4 0.2
2018-Apr-27 16:59N 26°36' W 077°01'1 0.0
2018-Apr-26 16:12N 26°35' W 077°01'313.3
2018-Apr-26 16:00N 26°32' W 077°02'2 0.1
2018-Apr-25 15:05N 26°32' W 076°59'2 0.3
2018-Apr-25 08:50N 26°31' W 076°59'0 0.0
2018-Apr-25 04:53N 26°31' W 076°59'0 0.0
2018-Apr-25 04:26N 26°31' W 076°59'0 0.0
2018-Apr-25 03:50N 26°31' W 076°59'0 0.0
2018-Apr-25 03:23N 26°31' W 076°59'0 0.0
2018-Apr-24 17:53N 26°31' W 076°58'5 0.1
2018-Apr-22 15:17N 26°35' W 077°02'2 8.6
2018-Apr-22 15:00N 26°33' W 077°01'2 0.4
2018-Apr-22 11:14N 26°33' W 077°03'0 0.0
2018-Apr-22 10:44N 26°33' W 077°03'0 0.0
2018-Apr-22 08:14N 26°33' W 077°03'0 0.0
2018-Apr-22 07:50N 26°33' W 077°03'0 0.0
2018-Apr-22 07:14N 26°33' W 077°03'0 0.0
2018-Apr-22 06:56N 26°33' W 077°03'0 0.0
2018-Apr-22 06:26N 26°33' W 077°03'0 0.0
2018-Apr-21 16:50N 26°33' W 077°03'0 0.0
2018-Apr-21 16:17N 26°33' W 077°03'0 0.0
2018-Apr-21 09:56N 26°33' W 077°03'0 0.0
2018-Apr-21 09:29N 26°33' W 077°03'0 0.0
2018-Apr-21 08:59N 26°33' W 077°03'0 0.0
2018-Apr-21 08:29N 26°33' W 077°03'0 0.0
2018-Apr-21 07:59N 26°33' W 077°03'0 0.0
2018-Apr-21 07:29N 26°33' W 077°03'0 0.0
2018-Apr-21 06:56N 26°33' W 077°03'0 0.0
2018-Apr-21 06:29N 26°33' W 077°03'0 0.0
2018-Apr-21 05:59N 26°33' W 077°03'0 0.0
2018-Apr-21 05:29N 26°33' W 077°03'0 0.0
2018-Apr-21 04:59N 26°33' W 077°03'0 0.0
2018-Apr-21 04:29N 26°33' W 077°03'0 0.0
2018-Apr-21 03:59N 26°33' W 077°03'0 0.0
2018-Apr-21 03:29N 26°33' W 077°03'0 0.0
2018-Apr-21 02:56N 26°33' W 077°03'0 0.0
2018-Apr-21 02:26N 26°33' W 077°03'0 0.0
2018-Apr-21 01:59N 26°33' W 077°03'0 0.0
2018-Apr-21 01:26N 26°33' W 077°03'0 0.0
2018-Apr-21 00:50N 26°33' W 077°03'0 0.0
2018-Apr-21 00:20N 26°33' W 077°03'0 0.0
2018-Apr-20 23:56N 26°33' W 077°03'0 0.0
2018-Apr-20 23:14N 26°33' W 077°03'0 0.0
2018-Apr-20 22:38N 26°33' W 077°03'0 0.0
2018-Apr-20 22:23N 26°33' W 077°03'0 0.0
2018-Apr-20 21:56N 26°33' W 077°03'0 0.0
2018-Apr-20 21:20N 26°33' W 077°03'0 0.0
2018-Apr-20 20:44N 26°33' W 077°03'2 6.7
2018-Apr-20 20:30N 26°33' W 077°01'2 0.3
2018-Apr-20 14:24N 26°35' W 077°01'3 0.4
2018-Apr-20 07:48N 26°33' W 077°03'0 0.0
2018-Apr-20 07:24N 26°33' W 077°03'0 0.0
2018-Apr-20 06:54N 26°33' W 077°03'0 0.0
2018-Apr-20 06:30N 26°33' W 077°03'0 0.0
2018-Apr-20 06:00N 26°33' W 077°03'0 0.0
2018-Apr-20 05:30N 26°33' W 077°03'0 0.0
2018-Apr-20 04:48N 26°33' W 077°03'0 0.0
2018-Apr-20 04:30N 26°33' W 077°03'0 0.0
2018-Apr-20 04:00N 26°33' W 077°03'0 0.0
2018-Apr-20 03:30N 26°33' W 077°03'0 0.0
2018-Apr-20 02:54N 26°33' W 077°03'0 0.0
2018-Apr-20 02:30N 26°33' W 077°03'0 0.0
2018-Apr-20 02:00N 26°33' W 077°03'0 0.0
2018-Apr-20 01:18N 26°33' W 077°03'0 0.0
2018-Apr-20 00:54N 26°33' W 077°03'0 0.0
2018-Apr-20 00:30N 26°33' W 077°03'  

Dump ship's entire track history